Time;durP1;ratioP1;P1;durP2;ratioP2;P2;SDS_P1;SDS_P2;PMS_P1;PMS_P2;Temp;Humidity;BMP_temperature;BMP_pressure;BME280_temperature;BME280_humidity;BME280_pressure;Samples;Min_cycle;Max_cycle;Signal;HPM_P1;HPM_P2
2021/03/18 00:01:42;;;;;;;26.20;15.90;;;;;;;-1.20;73.55;100835.19;99437;1171;86765;-58
2021/03/18 00:03:49;;;;;;;23.00;14.75;;;;;;;-1.24;73.84;100822.27;99451;1168;75326;-62
2021/03/18 00:05:56;;;;;;;21.40;15.10;;;;;;;-1.29;74.25;100830.50;99450;1174;89049;-61
2021/03/18 00:08:02;;;;;;;24.65;16.45;;;;;;;-1.33;74.10;100828.17;99427;1174;81673;-58
2021/03/18 00:10:10;;;;;;;30.85;20.75;;;;;;;-1.37;74.02;100829.31;99451;1171;68008;-58
2021/03/18 00:12:15;;;;;;;31.60;20.80;;;;;;;-1.41;74.39;100826.05;99432;1174;87624;-61
2021/03/18 00:14:24;;;;;;;39.75;26.80;;;;;;;-1.44;73.82;100828.05;99455;1175;75231;-61
2021/03/18 00:16:29;;;;;;;51.05;29.55;;;;;;;-1.48;74.53;100821.23;99438;1168;88447;-61
2021/03/18 00:18:40;;;;;;;80.30;37.60;;;;;;;-1.61;74.42;100818.56;99431;1174;82511;-60
2021/03/18 00:20:46;;;;;;;67.30;33.30;;;;;;;-1.58;74.70;100828.97;99450;1168;66961;-61
2021/03/18 00:22:51;;;;;;;73.10;33.40;;;;;;;-1.62;74.70;100821.33;99437;1174;86955;-61
2021/03/18 00:24:56;;;;;;;98.80;35.63;;;;;;;-1.66;74.76;100819.83;99453;1168;75362;-61
2021/03/18 00:27:05;;;;;;;72.93;25.30;;;;;;;-1.65;74.62;100821.53;99443;1174;89635;-62
2021/03/18 00:29:10;;;;;;;67.45;23.75;;;;;;;-1.69;74.98;100823.53;99431;1174;82580;-62
2021/03/18 00:31:17;;;;;;;60.50;23.50;;;;;;;-1.71;75.01;100816.64;99456;1171;66953;-61
2021/03/18 00:33:22;;;;;;;55.90;20.65;;;;;;;-1.74;75.08;100816.83;99438;1173;87101;-61
2021/03/18 00:35:28;;;;;;;40.10;16.90;;;;;;;-1.80;74.69;100818.94;99451;1172;75804;-61
2021/03/18 00:37:34;;;;;;;26.20;12.47;;;;;;;-1.85;74.67;100813.11;99443;1174;89217;-61
2021/03/18 00:39:39;;;;;;;23.60;11.50;;;;;;;-1.86;75.29;100815.83;99433;1174;82585;-62
2021/03/18 00:41:44;;;;;;;23.40;12.00;;;;;;;-1.89;75.52;100808.09;99458;1174;66916;-61
2021/03/18 00:43:50;;;;;;;18.30;8.90;;;;;;;-1.90;75.53;100817.86;99428;1174;87269;-62
2021/03/18 00:45:55;;;;;;;16.25;8.05;;;;;;;-1.92;75.32;100819.73;99448;1174;75525;-62
2021/03/18 00:48:08;;;;;;;13.10;8.00;;;;;;;-1.96;75.17;100799.72;99453;1168;89639;-62
2021/03/18 00:50:19;;;;;;;15.43;7.50;;;;;;;-1.96;75.50;100818.25;99428;1174;83154;-62
2021/03/18 00:52:27;;;;;;;14.60;7.90;;;;;;;-1.95;75.72;100819.10;99453;1174;66909;-62
2021/03/18 00:54:32;;;;;;;13.55;7.35;;;;;;;-2.00;75.58;100816.73;99437;1171;87739;-62
2021/03/18 00:56:37;;;;;;;14.87;8.27;;;;;;;-2.06;75.59;100808.36;99441;1174;76005;-62
2021/03/18 00:58:44;;;;;;;13.95;6.60;;;;;;;-2.07;75.41;100814.59;99453;1168;88797;-62
2021/03/18 01:00:51;;;;;;;13.80;7.20;;;;;;;-2.07;75.76;100809.30;99421;1174;83246;-62
2021/03/18 01:02:58;;;;;;;12.45;6.20;;;;;;;-2.07;75.41;100804.86;99450;1171;67004;-62
2021/03/18 01:05:07;;;;;;;12.90;7.10;;;;;;;-2.11;75.72;100803.34;99442;1174;87637;-62
2021/03/18 01:07:12;;;;;;;13.70;6.80;;;;;;;-2.13;75.52;100802.61;99452;1168;74930;-62
2021/03/18 01:09:21;;;;;;;13.87;7.00;;;;;;;-2.12;76.17;100799.02;99438;1174;89230;-62
2021/03/18 01:11:33;;;;;;;12.55;6.60;;;;;;;-2.13;76.01;100801.75;99435;1174;82933;-62
2021/03/18 01:13:42;;;;;;;15.45;6.55;;;;;;;-2.15;75.93;100803.66;99450;1174;66865;-62
2021/03/18 01:15:52;;;;;;;13.13;7.07;;;;;;;-2.20;76.32;100798.67;99439;1173;87145;-62
2021/03/18 01:17:57;;;;;;;11.60;6.60;;;;;;;-2.19;75.75;100802.99;99453;1171;75402;-62
2021/03/18 01:20:05;;;;;;;13.60;6.40;;;;;;;-2.19;75.90;100797.70;99434;1171;88622;-62
2021/03/18 01:22:10;;;;;;;12.25;6.35;;;;;;;-2.18;75.59;100801.20;99424;1174;82823;-62
2021/03/18 01:24:16;;;;;;;13.60;6.30;;;;;;;-2.22;76.36;100795.25;99435;1174;67138;-62
2021/03/18 01:26:21;;;;;;;13.57;6.90;;;;;;;-2.21;76.17;100796.10;99448;1174;87114;-62
2021/03/18 01:28:28;;;;;;;12.40;6.90;;;;;;;-2.26;75.81;100801.70;99454;1171;75095;-62
2021/03/18 01:30:34;;;;;;;15.30;7.40;;;;;;;-2.30;75.54;100802.83;99435;1174;89620;-61
2021/03/18 01:32:40;;;;;;;9.97;6.23;;;;;;;-2.33;76.14;100792.44;99420;1168;81317;-62
2021/03/18 01:34:45;;;;;;;12.70;6.15;;;;;;;-2.34;76.06;100788.13;99445;1171;67035;-61
2021/03/18 01:36:50;;;;;;;11.60;6.40;;;;;;;-2.34;76.01;100793.41;99436;1174;87314;-62
2021/03/18 01:38:55;;;;;;;13.60;6.25;;;;;;;-2.38;76.31;100799.83;99451;1168;75197;-63
2021/03/18 01:41:06;;;;;;;14.20;6.60;;;;;;;-2.42;75.96;100791.23;99442;1174;92216;-63
2021/03/18 01:43:12;;;;;;;12.05;6.55;;;;;;;-2.44;76.31;100795.78;99432;1167;82130;-62
2021/03/18 01:45:18;;;;;;;16.20;6.70;;;;;;;-2.45;76.18;100796.75;99449;1168;67018;-61
2021/03/18 01:47:24;;;;;;;11.80;6.90;;;;;;;-2.47;76.31;100788.03;99432;1174;87563;-61
2021/03/18 01:49:29;;;;;;;10.70;6.20;;;;;;;-2.48;76.33;100798.72;99452;1171;74404;-61
2021/03/18 01:51:39;;;;;;;13.50;7.00;;;;;;;-2.49;75.89;100797.02;99444;1171;88698;-61
2021/03/18 01:53:47;;;;;;;14.20;6.40;;;;;;;-2.49;76.33;100797.87;99429;1171;81431;-61
2021/03/18 01:55:55;;;;;;;10.70;6.00;;;;;;;-2.50;76.34;100797.98;99430;1168;67117;-61
2021/03/18 01:58:04;;;;;;;12.20;5.90;;;;;;;-2.53;76.63;100798.99;99442;1171;86937;-63
2021/03/18 02:00:14;;;;;;;11.40;5.90;;;;;;;-2.55;76.73;100803.54;99446;1168;75280;-63
2021/03/18 02:02:19;;;;;;;11.65;6.45;;;;;;;-2.59;76.95;100790.62;99445;1174;89781;-61
2021/03/18 02:04:24;;;;;;;12.50;7.10;;;;;;;-2.57;76.59;100799.30;99438;1174;82268;-61
2021/03/18 02:06:32;;;;;;;12.90;6.30;;;;;;;-2.59;76.41;100798.55;99449;1168;66909;-61
2021/03/18 02:08:38;;;;;;;12.80;6.70;;;;;;;-2.62;76.97;100783.73;99426;1174;87493;-61
2021/03/18 02:10:44;;;;;;;11.85;6.80;;;;;;;-2.63;77.05;100797.03;99445;1171;74356;-61
2021/03/18 02:12:50;;;;;;;9.13;6.13;;;;;;;-2.63;77.00;100787.30;99446;1174;89414;-63
2021/03/18 02:14:55;;;;;;;13.00;6.10;;;;;;;-2.57;77.06;100786.07;99428;1174;83137;-63
2021/03/18 02:17:04;;;;;;;10.70;5.80;;;;;;;-2.60;77.11;100784.47;99449;1168;67083;-63
2021/03/18 02:19:38;;;;;;;11.00;5.70;;;;;;;-2.57;76.84;100786.07;99428;1171;86153;-63
2021/03/18 02:22:36;;;;;;;11.23;6.13;;;;;;;-2.54;77.02;100785.88;99448;1174;75269;-63
2021/03/18 02:24:53;;;;;;;14.15;6.30;;;;;;;-2.52;76.94;100783.98;99439;1173;88214;-63
2021/03/18 02:27:46;;;;;;;10.90;6.10;;;;;;;-2.52;77.37;100783.98;99419;1171;82363;-61
2021/03/18 02:30:46;;;;;;;11.13;5.90;;;;;;;-2.52;77.20;100781.34;99430;1174;66499;-61
2021/03/18 02:33:14;;;;;;;13.35;6.40;;;;;;;-2.57;77.20;100778.14;99446;1168;86847;-63
2021/03/18 02:35:27;;;;;;;12.30;5.50;;;;;;;-2.53;77.40;100774.38;99455;1172;74646;-62
2021/03/18 02:37:33;;;;;;;9.60;5.60;;;;;;;-2.48;77.27;100778.42;99443;1171;90008;-62
2021/03/18 02:39:43;;;;;;;11.75;6.65;;;;;;;-2.43;77.46;100775.47;99418;1174;82834;-63
2021/03/18 02:42:00;;;;;;;13.40;6.40;;;;;;;-2.43;77.48;100776.33;99443;1168;66978;-61
2021/03/18 02:44:16;;;;;;;13.60;6.60;;;;;;;-2.41;77.35;100773.56;99434;1174;87005;-61
2021/03/18 02:46:23;;;;;;;10.45;6.20;;;;;;;-2.43;77.14;100778.11;99444;1168;75113;-62
2021/03/18 02:48:32;;;;;;;10.15;5.70;;;;;;;-2.46;77.49;100775.66;99437;1174;89930;-62
2021/03/18 02:50:39;;;;;;;10.90;7.00;;;;;;;-2.48;77.42;100778.42;99426;1174;82936;-62
2021/03/18 02:52:45;;;;;;;14.37;6.43;;;;;;;-2.51;77.46;100772.47;99434;1175;66930;-62
2021/03/18 02:54:54;;;;;;;11.60;6.60;;;;;;;-2.51;76.75;100780.41;99432;1175;87373;-62
2021/03/18 02:57:03;;;;;;;10.55;5.75;;;;;;;-2.59;77.09;100778.25;99449;1168;74591;-61
2021/03/18 02:59:11;;;;;;;13.20;6.80;;;;;;;-2.64;77.10;100785.63;99439;1175;89920;-61
2021/03/18 03:01:18;;;;;;;14.60;6.50;;;;;;;-2.67;77.40;100777.03;99418;1168;82527;-62
2021/03/18 03:03:24;;;;;;;12.30;6.50;;;;;;;-2.69;77.19;100779.75;99451;1173;67058;-63
2021/03/18 03:05:31;;;;;;;12.10;6.70;;;;;;;-2.68;76.95;100784.11;99434;1174;87496;-62
2021/03/18 03:07:37;;;;;;;12.40;6.40;;;;;;;-2.65;77.36;100783.06;99446;1168;74533;-61
2021/03/18 03:09:46;;;;;;;10.60;5.80;;;;;;;-2.57;77.46;100780.78;99443;1175;89370;-61
2021/03/18 03:11:52;;;;;;;11.10;6.20;;;;;;;-2.51;77.34;100778.61;99422;1175;81913;-61
2021/03/18 03:13:58;;;;;;;13.50;6.90;;;;;;;-2.41;78.09;100789.44;99435;1169;67247;-61
2021/03/18 03:16:11;;;;;;;13.30;6.10;;;;;;;-2.29;77.31;100790.46;99431;1171;86989;-61
2021/03/18 03:18:17;;;;;;;11.20;6.50;;;;;;;-2.18;78.05;100790.62;99445;1175;74846;-64
2021/03/18 03:20:22;;;;;;;14.65;7.10;;;;;;;-2.15;77.57;100785.98;99443;1171;89392;-63
2021/03/18 03:22:29;;;;;;;12.00;6.50;;;;;;;-2.07;78.18;100781.05;99425;1175;83094;-67
2021/03/18 03:24:37;;;;;;;11.65;6.50;;;;;;;-1.96;77.91;100785.63;99441;1174;66895;-67
2021/03/18 03:26:43;;;;;;;13.80;6.80;;;;;;;-1.93;78.59;100780.99;99427;1175;87528;-64
2021/03/18 03:28:49;;;;;;;13.90;7.10;;;;;;;-1.85;77.90;100781.33;99447;1174;74625;-64
2021/03/18 03:30:56;;;;;;;12.30;7.20;;;;;;;-1.76;78.07;100784.32;99442;1167;88829;-63
2021/03/18 03:33:01;;;;;;;12.35;6.75;;;;;;;-1.67;78.34;100781.04;99423;1174;82173;-66
2021/03/18 03:35:12;;;;;;;11.45;6.50;;;;;;;-1.68;78.34;100776.71;99446;1174;66954;-65
2021/03/18 03:37:17;;;;;;;9.60;6.30;;;;;;;-1.63;77.70;100772.80;99436;1171;87460;-62
2021/03/18 03:39:22;;;;;;;11.37;6.27;;;;;;;-1.61;77.74;100775.34;99446;1174;75164;-62
2021/03/18 03:41:28;;;;;;;12.00;6.47;;;;;;;-1.61;78.29;100781.48;99454;1168;89151;-64
2021/03/18 03:43:38;;;;;;;12.27;6.47;;;;;;;-1.55;78.37;100782.88;99424;1168;81900;-60
2021/03/18 03:45:44;;;;;;;11.03;6.90;;;;;;;-1.54;78.54;100773.99;99435;1174;67091;-60
2021/03/18 03:47:49;;;;;;;14.50;6.80;;;;;;;-1.49;78.78;100775.38;99432;1171;87556;-62
2021/03/18 03:49:55;;;;;;;12.90;6.33;;;;;;;-1.44;78.27;100773.27;99453;1171;74471;-62
2021/03/18 03:52:12;;;;;;;10.90;6.20;;;;;;;-1.43;78.24;100774.12;99430;1171;88925;-62
2021/03/18 03:54:20;;;;;;;14.85;7.85;;;;;;;-1.41;78.81;100772.20;99419;1175;82637;-61
2021/03/18 03:56:33;;;;;;;12.00;6.70;;;;;;;-1.39;78.07;100778.23;99441;1168;67066;-62
2021/03/18 03:58:47;;;;;;;11.05;6.20;;;;;;;-1.40;78.06;100784.51;99434;1168;87806;-62
2021/03/18 04:00:53;;;;;;;13.05;7.35;;;;;;;-1.40;78.31;100784.51;99441;1171;75185;-62
2021/03/18 04:03:04;;;;;;;14.80;7.40;;;;;;;-1.42;77.83;100781.09;99439;1175;89798;-62
2021/03/18 04:05:13;;;;;;;12.70;6.60;;;;;;;-1.39;78.47;100779.09;99431;1174;82487;-62
2021/03/18 04:07:22;;;;;;;11.50;6.80;;;;;;;-1.35;78.22;100777.95;99432;1175;67157;-62
2021/03/18 04:09:28;;;;;;;;;;;;;;;-1.30;78.42;100774.97;99447;1173;86911;-62
2021/03/18 04:11:36;;;;;;;12.70;6.80;;;;;;;-1.26;78.22;100776.44;99447;1168;75886;-63
2021/03/18 04:13:42;;;;;;;10.10;6.90;;;;;;;-1.28;78.20;100781.00;99439;1175;89545;-63
2021/03/18 04:15:49;;;;;;;12.20;8.10;;;;;;;-1.27;78.90;100766.81;99424;1175;82799;-63
2021/03/18 04:17:56;;;;;;;15.05;8.10;;;;;;;-1.22;78.49;100770.84;99443;1168;66881;-63
2021/03/18 04:20:08;;;;;;;12.60;7.60;;;;;;;-1.17;78.34;100772.31;99445;1174;87461;-63
2021/03/18 04:22:14;;;;;;;12.47;7.60;;;;;;;-1.15;78.88;100773.90;99446;1168;75093;-63
2021/03/18 04:24:23;;;;;;;10.80;7.15;;;;;;;-1.09;78.28;100773.48;99435;1174;89384;-63
2021/03/18 04:26:29;;;;;;;11.60;7.70;;;;;;;-1.09;78.72;100773.48;99421;1174;83255;-63
2021/03/18 04:28:36;;;;;;;12.60;7.00;;;;;;;-1.08;78.37;100771.69;99462;1171;67005;-62
2021/03/18 04:30:43;;;;;;;13.80;7.90;;;;;;;-1.09;78.48;100780.58;99422;1175;88039;-62
2021/03/18 04:32:50;;;;;;;13.55;7.75;;;;;;;-1.10;78.82;100774.45;99452;1171;75410;-63
2021/03/18 04:34:57;;;;;;;11.17;7.37;;;;;;;-1.11;78.83;100780.70;99444;1174;89133;-63
2021/03/18 04:37:09;;;;;;;12.10;7.50;;;;;;;-1.10;78.37;100774.45;99424;1168;82416;-63
2021/03/18 04:39:15;;;;;;;13.00;7.50;;;;;;;-1.11;78.39;100780.70;99440;1167;67174;-63
2021/03/18 04:41:21;;;;;;;13.80;7.50;;;;;;;-1.15;78.50;100781.85;99437;1173;86695;-63
2021/03/18 04:43:29;;;;;;;13.65;7.95;;;;;;;-1.14;78.68;100783.56;99460;1167;76073;-63
2021/03/18 04:45:36;;;;;;;14.95;7.80;;;;;;;-1.19;78.53;100775.08;99443;1167;89945;-62
2021/03/18 04:47:43;;;;;;;13.60;8.10;;;;;;;-1.18;79.03;100776.76;99424;1174;83242;-62
2021/03/18 04:49:50;;;;;;;14.80;9.10;;;;;;;-1.17;78.50;100790.86;99433;1174;66919;-62
2021/03/18 04:51:56;;;;;;;13.10;8.30;;;;;;;-1.17;78.97;100785.56;99440;1171;86862;-63
2021/03/18 04:54:02;;;;;;;15.40;9.00;;;;;;;-1.14;78.68;100780.05;99434;1168;75380;-63
2021/03/18 04:56:09;;;;;;;13.20;8.35;;;;;;;-1.12;79.14;100788.74;99438;1174;89524;-63
2021/03/18 04:58:15;;;;;;;11.33;7.60;;;;;;;-1.09;79.23;100778.78;99431;1171;82903;-63
2021/03/18 05:00:23;;;;;;;13.53;7.87;;;;;;;-1.05;79.29;100782.08;99432;1175;67150;-63
2021/03/18 05:02:30;;;;;;;15.57;9.10;;;;;;;-0.98;79.14;100792.14;99443;1174;87901;-63
2021/03/18 05:04:37;;;;;;;16.80;9.20;;;;;;;-0.91;79.08;100784.63;99452;1174;75051;-63
2021/03/18 05:06:51;;;;;;;17.40;9.65;;;;;;;-0.86;78.79;100791.30;99443;1174;89671;-63
2021/03/18 05:09:00;;;;;;;15.27;9.80;;;;;;;-0.85;78.81;100790.33;99440;1174;82081;-63
2021/03/18 05:11:08;;;;;;;19.30;10.45;;;;;;;-0.89;79.48;100790.66;99435;1174;66834;-63
2021/03/18 05:13:16;;;;;;;17.87;10.03;;;;;;;-0.88;79.25;100793.19;99432;1167;87230;-63
2021/03/18 05:15:23;;;;;;;18.10;10.50;;;;;;;-0.89;79.73;100788.86;99443;1174;75356;-63
2021/03/18 05:17:28;;;;;;;25.05;12.70;;;;;;;-0.82;78.96;100791.91;99441;1174;88544;-63
2021/03/18 05:19:34;;;;;;;24.10;12.40;;;;;;;-0.81;79.69;100788.32;99420;1175;81267;-62
2021/03/18 05:21:44;;;;;;;20.85;11.50;;;;;;;-0.80;79.62;100782.07;99439;1174;66894;-63
2021/03/18 05:23:52;;;;;;;23.05;13.35;;;;;;;-0.75;79.46;100778.14;99437;1174;87316;-63
2021/03/18 05:25:57;;;;;;;20.60;11.23;;;;;;;-0.68;79.57;100774.08;99441;1174;75610;-63
2021/03/18 05:28:03;;;;;;;17.30;11.05;;;;;;;-0.67;79.42;100778.44;99443;1171;89427;-62
2021/03/18 05:30:12;;;;;;;17.97;10.30;;;;;;;-0.58;79.27;100776.09;99422;1171;81379;-62
2021/03/18 05:32:18;;;;;;;16.60;11.40;;;;;;;-0.56;79.85;100775.02;99441;1171;67087;-63
2021/03/18 05:34:23;;;;;;;15.57;10.27;;;;;;;-0.42;79.43;100774.89;99433;1174;86551;-63
2021/03/18 05:36:28;;;;;;;17.75;10.60;;;;;;;-0.31;79.47;100774.11;99445;1174;75237;-63
2021/03/18 05:38:36;;;;;;;13.00;9.70;;;;;;;-0.29;79.55;100782.80;99438;1168;89424;-63
2021/03/18 05:40:44;;;;;;;13.75;9.30;;;;;;;-0.23;79.98;100785.02;99425;1174;82722;-63
2021/03/18 05:42:50;;;;;;;14.10;9.80;;;;;;;-0.17;79.89;100785.43;99456;1168;66925;-62
2021/03/18 05:44:58;;;;;;;16.40;10.70;;;;;;;-0.10;79.42;100788.47;99434;1174;87404;-62
2021/03/18 05:47:07;;;;;;;21.50;13.50;;;;;;;-0.03;80.04;100787.08;99441;1171;75160;-63
2021/03/18 05:49:14;;;;;;;27.60;14.23;;;;;;;0.01;80.01;100785.88;99438;1174;89196;-62
2021/03/18 05:51:23;;;;;;;26.80;14.70;;;;;;;0.09;79.81;100790.61;99429;1168;82509;-62
2021/03/18 05:53:29;;;;;;;17.85;12.05;;;;;;;0.09;79.77;100783.49;99448;1168;67059;-63
2021/03/18 05:55:36;;;;;;;18.45;11.15;;;;;;;0.14;79.69;100797.28;99435;1174;87047;-62
2021/03/18 05:57:44;;;;;;;16.20;10.70;;;;;;;0.19;79.78;100786.33;99454;1171;75276;-62
2021/03/18 05:59:50;;;;;;;12.50;9.10;;;;;;;0.24;80.04;100789.48;99442;1175;89507;-63
2021/03/18 06:01:55;;;;;;;13.30;9.10;;;;;;;0.36;79.85;100791.21;99428;1175;81546;-63
2021/03/18 06:04:04;;;;;;;15.83;10.50;;;;;;;0.45;80.21;100790.53;99441;1174;66871;-63
2021/03/18 06:06:11;;;;;;;12.80;9.20;;;;;;;0.53;79.80;100796.97;99440;1172;87029;-61
2021/03/18 06:08:16;;;;;;;12.50;8.70;;;;;;;0.64;79.88;100787.33;99462;1175;75132;-63
2021/03/18 06:10:25;;;;;;;11.75;8.80;;;;;;;0.71;79.74;100789.42;99432;1169;88215;-63
2021/03/18 06:12:31;;;;;;;14.10;9.80;;;;;;;0.82;79.94;100792.11;99432;1174;82678;-63
2021/03/18 06:14:37;;;;;;;10.90;7.90;;;;;;;0.94;79.75;100790.29;99443;1167;66828;-63
2021/03/18 06:16:42;;;;;;;12.25;8.40;;;;;;;1.03;79.91;100794.91;99440;1174;87297;-63
2021/03/18 06:18:47;;;;;;;12.55;8.90;;;;;;;1.04;79.52;100792.11;99452;1174;75465;-62
2021/03/18 06:20:56;;;;;;;14.10;8.70;;;;;;;1.05;79.73;100803.61;99441;1174;88949;-62
2021/03/18 06:23:11;;;;;;;14.85;9.25;;;;;;;1.13;79.25;100802.05;99433;1174;82720;-62
2021/03/18 06:25:27;;;;;;;14.50;9.00;;;;;;;1.16;78.84;100800.96;99447;1174;66876;-64
2021/03/18 06:27:36;;;;;;;14.47;9.23;;;;;;;1.23;78.69;100806.66;99430;1175;87849;-63
2021/03/18 06:29:43;;;;;;;15.40;9.40;;;;;;;1.22;78.99;100807.62;99442;1168;75648;-63
2021/03/18 06:31:51;;;;;;;19.00;10.10;;;;;;;1.31;79.03;100812.23;99436;1167;89139;-62
2021/03/18 06:33:57;;;;;;;20.20;10.87;;;;;;;1.75;79.34;100805.08;99425;1174;81403;-64
2021/03/18 06:36:21;;;;;;;18.80;10.13;;;;;;;2.90;80.15;100807.92;99452;1174;66886;-62
2021/03/18 06:38:33;;;;;;;16.90;9.70;;;;;;;3.89;79.16;100797.41;99435;1175;88035;-63
2021/03/18 06:40:44;;;;;;;13.05;9.25;;;;;;;3.91;78.12;100798.97;99452;1175;75284;-63
2021/03/18 06:42:58;;;;;;;12.13;8.20;;;;;;;4.31;77.99;100795.38;99450;1174;88451;-63
2021/03/18 06:45:11;;;;;;;11.30;8.40;;;;;;;4.88;76.95;100791.83;99430;1168;81801;-64
2021/03/18 06:47:20;;;;;;;9.87;7.23;;;;;;;5.09;75.44;100787.98;99454;1168;66910;-63
2021/03/18 06:49:26;;;;;;;10.30;7.50;;;;;;;5.33;75.03;100785.65;99438;1175;87352;-62
2021/03/18 06:51:34;;;;;;;12.75;8.25;;;;;;;5.78;74.91;100796.47;99446;1175;76222;-63
2021/03/18 06:53:40;;;;;;;11.40;8.05;;;;;;;5.59;73.87;100795.70;99440;1174;90021;-65
2021/03/18 06:55:45;;;;;;;9.85;6.40;;;;;;;6.00;73.12;100789.88;99416;1172;82259;-62
2021/03/18 06:58:14;;;;;;;9.40;7.30;;;;;;;6.62;72.39;100785.48;99450;1171;67628;-62
2021/03/18 07:00:36;;;;;;;8.80;6.50;;;;;;;6.29;71.57;100785.16;99435;1174;87727;-66
2021/03/18 07:02:47;;;;;;;8.65;5.25;;;;;;;5.54;70.61;100788.13;99451;1174;75490;-63
2021/03/18 07:04:57;;;;;;;9.60;7.10;;;;;;;5.12;71.29;100786.84;99443;1174;89712;-63
2021/03/18 07:07:08;;;;;;;9.30;7.00;;;;;;;5.40;71.48;100790.42;99429;1171;81487;-65
2021/03/18 07:09:15;;;;;;;12.60;10.50;;;;;;;5.52;71.02;100786.59;99450;1168;66909;-63
2021/03/18 07:11:23;;;;;;;39.50;22.83;;;;;;;5.40;70.21;100788.59;99438;1173;87583;-64
2021/03/18 07:13:31;;;;;;;42.35;24.20;;;;;;;4.90;68.78;100793.38;99456;1168;74641;-65
2021/03/18 07:15:39;;;;;;;33.10;18.70;;;;;;;4.23;69.37;100787.22;99440;1168;89545;-63
2021/03/18 07:17:45;;;;;;;44.43;24.30;;;;;;;3.73;69.19;100794.42;99423;1171;82118;-64
2021/03/18 07:20:09;;;;;;;34.90;20.60;;;;;;;3.46;69.21;100795.03;99442;1168;66955;-64
2021/03/18 07:22:20;;;;;;;21.30;13.60;;;;;;;3.09;69.55;100792.03;99444;1174;87552;-62
2021/03/18 07:24:32;;;;;;;23.95;15.15;;;;;;;2.82;69.98;100797.91;99446;1171;77171;-63
2021/03/18 07:26:41;;;;;;;16.25;9.90;;;;;;;2.68;70.19;100805.38;99445;1174;88719;-63
2021/03/18 07:28:49;;;;;;;8.40;5.60;;;;;;;2.63;70.26;100797.77;99437;1174;81834;-62
2021/03/18 07:30:54;;;;;;;7.50;5.40;;;;;;;2.54;70.71;100801.20;99455;1170;67150;-63
2021/03/18 07:33:01;;;;;;;7.80;5.65;;;;;;;2.46;70.91;100798.33;99434;1174;87894;-62
2021/03/18 07:35:12;;;;;;;8.90;5.27;;;;;;;2.40;71.10;100798.83;99440;1167;75324;-61
2021/03/18 07:37:17;;;;;;;6.50;4.45;;;;;;;2.44;71.64;100797.63;99444;1173;88477;-61
2021/03/18 07:39:26;;;;;;;6.05;4.80;;;;;;;2.61;71.79;100802.36;99422;1175;82562;-61
2021/03/18 07:41:36;;;;;;;8.00;5.50;;;;;;;2.75;71.21;100796.72;99443;1174;67082;-62
2021/03/18 07:43:45;;;;;;;14.43;10.07;;;;;;;3.09;71.13;100794.70;99426;1167;86993;-61
2021/03/18 07:45:53;;;;;;;16.50;12.60;;;;;;;3.22;70.59;100794.47;99464;1168;74704;-61
2021/03/18 07:48:02;;;;;;;38.05;29.25;;;;;;;3.40;70.66;100793.74;99439;1174;89776;-64
2021/03/18 07:50:15;;;;;;;26.70;19.90;;;;;;;3.65;69.96;100786.23;99421;1167;82319;-63
2021/03/18 07:52:29;;;;;;;10.30;7.65;;;;;;;3.86;69.78;100787.84;99443;1175;67490;-62
2021/03/18 07:54:37;;;;;;;13.10;11.70;;;;;;;4.08;69.17;100784.09;99438;1174;87220;-62
2021/03/18 07:56:49;;;;;;;21.70;19.60;;;;;;;4.08;68.66;100784.94;99445;1174;75398;-62
2021/03/18 07:59:08;;;;;;;11.80;10.70;;;;;;;3.98;68.27;100783.23;99445;1174;89643;-63
2021/03/18 08:01:40;;;;;;;41.75;37.25;;;;;;;3.79;67.74;100781.34;99403;1174;82006;-62
2021/03/18 08:03:53;;;;;;;68.10;46.10;;;;;;;3.64;66.62;100782.72;99452;1175;66850;-63
2021/03/18 08:06:00;;;;;;;164.63;104.27;;;;;;;3.46;66.51;100781.68;99438;1171;87684;-62
2021/03/18 08:08:07;;;;;;;128.85;64.10;;;;;;;3.50;66.75;100775.92;99444;1168;74519;-61
2021/03/18 08:10:17;;;;;;;32.60;15.00;;;;;;;3.56;65.83;100766.52;99448;1168;88928;-62
2021/03/18 08:12:49;;;;;;;53.85;18.60;;;;;;;3.72;66.49;100772.20;99422;1167;82313;-62
2021/03/18 08:15:26;;;;;;;10.17;5.67;;;;;;;3.97;64.72;100769.02;99452;1173;67017;-63
2021/03/18 08:17:34;;;;;;;10.20;5.95;;;;;;;3.98;64.81;100762.67;99420;1174;87118;-63
2021/03/18 08:19:42;;;;;;;20.30;10.50;;;;;;;4.15;65.12;100766.50;99441;1174;75737;-61
2021/03/18 08:21:49;;;;;;;15.60;8.95;;;;;;;3.91;64.59;100772.24;99449;1174;89329;-61
2021/03/18 08:23:56;;;;;;;8.55;6.20;;;;;;;3.76;64.97;100768.28;99420;1171;81803;-62
2021/03/18 08:26:04;;;;;;;8.40;5.70;;;;;;;3.62;65.15;100765.98;99439;1171;67017;-62
2021/03/18 08:28:43;;;;;;;6.60;4.60;;;;;;;3.50;65.31;100775.07;99431;1174;86565;-63
2021/03/18 08:30:57;;;;;;;6.80;4.63;;;;;;;3.44;66.04;100764.92;99443;1167;74587;-61
2021/03/18 08:33:32;;;;;;;6.90;5.30;;;;;;;3.41;65.72;100771.38;99442;1167;88840;-63
2021/03/18 08:35:41;;;;;;;11.20;7.35;;;;;;;3.50;66.12;100759.90;99432;1174;83673;-63
2021/03/18 08:37:48;;;;;;;7.10;5.50;;;;;;;3.55;66.13;100767.49;99438;1174;66848;-63
2021/03/18 08:39:56;;;;;;;5.70;3.60;;;;;;;3.47;65.96;100767.33;99438;1167;86692;-63
2021/03/18 08:42:06;;;;;;;5.20;3.20;;;;;;;3.49;66.40;100765.36;99459;1174;75916;-62
2021/03/18 08:44:23;;;;;;;4.70;3.20;;;;;;;3.43;65.62;100768.59;99446;1174;88924;-63
2021/03/18 08:46:41;;;;;;;6.20;4.70;;;;;;;3.34;66.00;100766.72;99442;1171;81787;-62
2021/03/18 08:49:25;;;;;;;6.17;3.97;;;;;;;3.34;65.48;100764.90;99437;1175;66906;-63
2021/03/18 08:51:47;;;;;;;6.50;3.00;;;;;;;3.56;66.10;100763.86;99429;1171;86998;-63
2021/03/18 08:53:55;;;;;;;4.40;2.95;;;;;;;3.71;65.80;100767.00;99434;1175;76181;-62
2021/03/18 08:56:05;;;;;;;5.20;2.90;;;;;;;3.84;65.35;100771.11;99445;1168;89126;-65
2021/03/18 08:58:15;;;;;;;5.30;2.70;;;;;;;3.95;65.57;100759.45;99424;1171;82401;-63
2021/03/18 09:00:25;;;;;;;3.70;2.20;;;;;;;3.97;64.48;100758.33;99452;1168;66858;-60
2021/03/18 09:02:34;;;;;;;3.75;2.35;;;;;;;3.94;64.04;100758.61;99432;1175;87569;-60
2021/03/18 09:04:41;;;;;;;3.75;2.50;;;;;;;4.00;65.14;100749.19;99449;1171;74373;-62
2021/03/18 09:06:49;;;;;;;4.30;2.30;;;;;;;4.12;64.86;100764.13;99442;1168;88349;-64
2021/03/18 09:08:58;;;;;;;3.60;1.70;;;;;;;4.51;64.37;100757.78;99429;1175;82809;-61
2021/03/18 09:11:05;;;;;;;3.45;2.20;;;;;;;5.03;62.46;100751.07;99444;1170;66997;-60
2021/03/18 09:13:19;;;;;;;3.55;2.30;;;;;;;4.90;62.96;100758.58;99436;1168;87428;-60
2021/03/18 09:15:32;;;;;;;2.60;1.90;;;;;;;4.56;61.88;100754.70;99445;1167;74642;-63
2021/03/18 09:17:39;;;;;;;3.00;1.90;;;;;;;4.28;61.58;100758.22;99456;1168;89324;-62
2021/03/18 09:19:47;;;;;;;3.00;2.10;;;;;;;4.01;60.53;100757.05;99436;1174;82688;-61
2021/03/18 09:21:53;;;;;;;3.20;2.20;;;;;;;3.73;61.60;100757.87;99448;1174;66878;-61
2021/03/18 09:23:59;;;;;;;3.30;1.90;;;;;;;3.52;61.70;100759.75;99446;1174;87615;-62
2021/03/18 09:26:16;;;;;;;4.67;2.07;;;;;;;3.40;62.38;100761.70;99445;1174;75627;-63
2021/03/18 09:28:22;;;;;;;3.00;1.90;;;;;;;3.39;62.03;100761.81;99446;1174;90612;-61
2021/03/18 09:30:34;;;;;;;3.63;2.00;;;;;;;3.40;62.46;100758.18;99431;1175;83050;-62
2021/03/18 09:32:42;;;;;;;2.70;2.10;;;;;;;3.55;62.91;100765.67;99444;1169;66939;-63
2021/03/18 09:34:48;;;;;;;3.30;2.00;;;;;;;3.77;62.87;100753.07;99443;1175;88009;-63
2021/03/18 09:36:54;;;;;;;3.37;2.07;;;;;;;4.01;63.01;100751.70;99447;1174;76158;-61
2021/03/18 09:39:08;;;;;;;4.30;2.20;;;;;;;4.24;63.19;100751.45;99446;1174;89362;-62
2021/03/18 09:41:25;;;;;;;2.60;1.80;;;;;;;4.44;62.82;100740.63;99421;1174;82069;-63
2021/03/18 09:43:34;;;;;;;2.90;1.80;;;;;;;4.55;62.43;100745.83;99455;1171;67104;-64
2021/03/18 09:45:40;;;;;;;2.70;1.43;;;;;;;4.44;61.02;100745.13;99435;1174;87475;-63
2021/03/18 09:47:52;;;;;;;2.27;1.47;;;;;;;4.15;60.67;100745.11;99443;1171;75033;-62
2021/03/18 09:49:57;;;;;;;2.85;1.80;;;;;;;3.97;60.82;100744.12;99432;1168;89025;-60
2021/03/18 09:52:08;;;;;;;2.60;1.80;;;;;;;3.74;60.57;100740.84;99436;1174;83054;-59
2021/03/18 09:54:18;;;;;;;3.40;1.60;;;;;;;3.72;60.54;100739.28;99442;1174;66843;-61
2021/03/18 09:56:36;;;;;;;3.10;1.60;;;;;;;3.53;60.78;100758.78;99439;1172;87385;-61
2021/03/18 09:58:44;;;;;;;2.90;1.70;;;;;;;3.45;60.46;100747.93;99451;1175;75816;-60
2021/03/18 10:00:49;;;;;;;4.25;1.90;;;;;;;3.30;61.22;100751.93;99452;1172;88862;-60